sensor_id;sensor_type;location;lat;lon;timestamp;temperature;humidity
56861;DHT22;42744;51.094;3.490;2023-08-07T00:00:46;11.40;99.90
56861;DHT22;42744;51.094;3.490;2023-08-07T00:03:12;11.40;99.90
56861;DHT22;42744;51.094;3.490;2023-08-07T00:05:47;11.40;99.90
56861;DHT22;42744;51.094;3.490;2023-08-07T00:08:13;11.40;99.90
56861;DHT22;42744;51.094;3.490;2023-08-07T00:10:39;11.40;99.90
56861;DHT22;42744;51.094;3.490;2023-08-07T00:13:06;11.40;99.90
56861;DHT22;42744;51.094;3.490;2023-08-07T00:15:32;11.40;99.90
56861;DHT22;42744;51.094;3.490;2023-08-07T00:17:59;11.40;99.90
56861;DHT22;42744;51.094;3.490;2023-08-07T00:20:25;11.30;99.90
56861;DHT22;42744;51.094;3.490;2023-08-07T00:22:51;11.30;99.90
56861;DHT22;42744;51.094;3.490;2023-08-07T00:25:18;11.20;99.90
56861;DHT22;42744;51.094;3.490;2023-08-07T00:27:44;11.20;99.90
56861;DHT22;42744;51.094;3.490;2023-08-07T00:30:11;11.20;99.90
56861;DHT22;42744;51.094;3.490;2023-08-07T00:32:37;11.10;99.90
56861;DHT22;42744;51.094;3.490;2023-08-07T00:35:03;11.20;99.90
56861;DHT22;42744;51.094;3.490;2023-08-07T00:37:30;11.20;99.90
56861;DHT22;42744;51.094;3.490;2023-08-07T00:39:56;11.20;99.90
56861;DHT22;42744;51.094;3.490;2023-08-07T00:42:22;11.20;99.90
56861;DHT22;42744;51.094;3.490;2023-08-07T00:44:48;11.20;99.90
56861;DHT22;42744;51.094;3.490;2023-08-07T00:47:14;11.20;99.90
56861;DHT22;42744;51.094;3.490;2023-08-07T00:49:49;11.20;99.90
56861;DHT22;42744;51.094;3.490;2023-08-07T00:52:15;11.10;99.90
56861;DHT22;42744;51.094;3.490;2023-08-07T00:54:42;11.10;99.90
56861;DHT22;42744;51.094;3.490;2023-08-07T00:57:12;11.10;99.90
56861;DHT22;42744;51.094;3.490;2023-08-07T00:59:41;11.10;99.90
56861;DHT22;42744;51.094;3.490;2023-08-07T01:02:08;11.10;99.90
56861;DHT22;42744;51.094;3.490;2023-08-07T01:04:34;11.00;99.90
56861;DHT22;42744;51.094;3.490;2023-08-07T01:07:01;11.00;99.90
56861;DHT22;42744;51.094;3.490;2023-08-07T01:09:27;11.00;99.90
56861;DHT22;42744;51.094;3.490;2023-08-07T01:12:19;11.10;99.90
56861;DHT22;42744;51.094;3.490;2023-08-07T01:14:55;11.00;99.90
56861;DHT22;42744;51.094;3.490;2023-08-07T01:17:22;11.00;99.90
56861;DHT22;42744;51.094;3.490;2023-08-07T01:19:52;11.00;99.90
56861;DHT22;42744;51.094;3.490;2023-08-07T01:22:19;11.10;99.90
56861;DHT22;42744;51.094;3.490;2023-08-07T01:24:48;11.10;99.90
56861;DHT22;42744;51.094;3.490;2023-08-07T01:30:11;11.00;99.90
56861;DHT22;42744;51.094;3.490;2023-08-07T01:35:45;11.00;99.90
56861;DHT22;42744;51.094;3.490;2023-08-07T01:38:13;11.00;99.90
56861;DHT22;42744;51.094;3.490;2023-08-07T01:40:41;11.00;99.90
56861;DHT22;42744;51.094;3.490;2023-08-07T01:43:07;11.00;99.90
56861;DHT22;42744;51.094;3.490;2023-08-07T01:45:34;11.00;99.90
56861;DHT22;42744;51.094;3.490;2023-08-07T01:48:00;10.90;99.90
56861;DHT22;42744;51.094;3.490;2023-08-07T01:50:26;10.90;99.90
56861;DHT22;42744;51.094;3.490;2023-08-07T01:52:56;11.00;99.90
56861;DHT22;42744;51.094;3.490;2023-08-07T01:55:23;11.00;99.90
56861;DHT22;42744;51.094;3.490;2023-08-07T01:57:49;11.00;99.90
56861;DHT22;42744;51.094;3.490;2023-08-07T02:00:15;11.00;99.90
56861;DHT22;42744;51.094;3.490;2023-08-07T02:02:41;11.10;99.90
56861;DHT22;42744;51.094;3.490;2023-08-07T02:05:07;11.10;99.90
56861;DHT22;42744;51.094;3.490;2023-08-07T02:07:33;11.20;99.90
56861;DHT22;42744;51.094;3.490;2023-08-07T02:10:01;11.20;99.90
56861;DHT22;42744;51.094;3.490;2023-08-07T02:12:27;11.20;99.90
56861;DHT22;42744;51.094;3.490;2023-08-07T02:14:55;11.20;99.90
56861;DHT22;42744;51.094;3.490;2023-08-07T02:17:21;11.20;99.90
56861;DHT22;42744;51.094;3.490;2023-08-07T02:19:50;11.20;99.90
56861;DHT22;42744;51.094;3.490;2023-08-07T02:22:16;11.20;99.90
56861;DHT22;42744;51.094;3.490;2023-08-07T02:24:42;11.20;99.90
56861;DHT22;42744;51.094;3.490;2023-08-07T02:27:08;11.20;99.90
56861;DHT22;42744;51.094;3.490;2023-08-07T02:29:35;11.20;99.90
56861;DHT22;42744;51.094;3.490;2023-08-07T02:32:02;11.20;99.90
56861;DHT22;42744;51.094;3.490;2023-08-07T02:34:29;11.20;99.90
56861;DHT22;42744;51.094;3.490;2023-08-07T02:36:57;11.20;99.90
56861;DHT22;42744;51.094;3.490;2023-08-07T02:39:24;11.20;99.90
56861;DHT22;42744;51.094;3.490;2023-08-07T02:41:51;11.20;99.90
56861;DHT22;42744;51.094;3.490;2023-08-07T02:44:17;11.20;99.90
56861;DHT22;42744;51.094;3.490;2023-08-07T02:46:46;11.20;99.90
56861;DHT22;42744;51.094;3.490;2023-08-07T02:49:12;11.20;99.90
56861;DHT22;42744;51.094;3.490;2023-08-07T02:51:38;11.20;99.90
56861;DHT22;42744;51.094;3.490;2023-08-07T02:54:07;11.10;99.90
56861;DHT22;42744;51.094;3.490;2023-08-07T02:56:33;11.10;99.90
56861;DHT22;42744;51.094;3.490;2023-08-07T02:58:59;11.10;99.90
56861;DHT22;42744;51.094;3.490;2023-08-07T03:01:27;11.10;99.90
56861;DHT22;42744;51.094;3.490;2023-08-07T03:03:53;11.10;99.90
56861;DHT22;42744;51.094;3.490;2023-08-07T03:06:19;11.10;99.90
56861;DHT22;42744;51.094;3.490;2023-08-07T03:08:45;11.00;99.90
56861;DHT22;42744;51.094;3.490;2023-08-07T03:11:11;11.00;99.90
56861;DHT22;42744;51.094;3.490;2023-08-07T03:13:37;11.00;99.90
56861;DHT22;42744;51.094;3.490;2023-08-07T03:16:04;11.00;99.90
56861;DHT22;42744;51.094;3.490;2023-08-07T03:18:31;11.00;99.90
56861;DHT22;42744;51.094;3.490;2023-08-07T03:20:58;11.00;99.90
56861;DHT22;42744;51.094;3.490;2023-08-07T03:23:25;11.00;99.90
56861;DHT22;42744;51.094;3.490;2023-08-07T03:26:06;10.90;99.90
56861;DHT22;42744;51.094;3.490;2023-08-07T03:28:33;11.00;99.90
56861;DHT22;42744;51.094;3.490;2023-08-07T03:31:00;10.90;99.90
56861;DHT22;42744;51.094;3.490;2023-08-07T03:33:26;10.90;99.90
56861;DHT22;42744;51.094;3.490;2023-08-07T03:35:52;10.90;99.90
56861;DHT22;42744;51.094;3.490;2023-08-07T03:38:19;10.90;99.90
56861;DHT22;42744;51.094;3.490;2023-08-07T03:40:46;10.80;99.90
56861;DHT22;42744;51.094;3.490;2023-08-07T03:43:12;10.80;99.90
56861;DHT22;42744;51.094;3.490;2023-08-07T03:45:39;10.80;99.90
56861;DHT22;42744;51.094;3.490;2023-08-07T03:48:05;10.80;99.90
56861;DHT22;42744;51.094;3.490;2023-08-07T03:50:31;10.80;99.90
56861;DHT22;42744;51.094;3.490;2023-08-07T03:53:00;10.70;99.90
56861;DHT22;42744;51.094;3.490;2023-08-07T03:55:27;10.70;99.90
56861;DHT22;42744;51.094;3.490;2023-08-07T03:57:53;10.60;99.90
56861;DHT22;42744;51.094;3.490;2023-08-07T04:00:19;10.60;99.90
56861;DHT22;42744;51.094;3.490;2023-08-07T04:02:48;10.60;99.90
56861;DHT22;42744;51.094;3.490;2023-08-07T04:05:14;10.60;99.90
56861;DHT22;42744;51.094;3.490;2023-08-07T04:07:40;10.60;99.90
56861;DHT22;42744;51.094;3.490;2023-08-07T04:10:06;10.50;99.90
56861;DHT22;42744;51.094;3.490;2023-08-07T04:12:32;10.60;99.90
56861;DHT22;42744;51.094;3.490;2023-08-07T04:14:58;10.60;99.90
56861;DHT22;42744;51.094;3.490;2023-08-07T04:17:25;10.50;99.90
56861;DHT22;42744;51.094;3.490;2023-08-07T04:19:52;10.50;99.90
56861;DHT22;42744;51.094;3.490;2023-08-07T04:22:18;10.50;99.90
56861;DHT22;42744;51.094;3.490;2023-08-07T04:24:44;10.50;99.90
56861;DHT22;42744;51.094;3.490;2023-08-07T04:27:09;10.50;99.90
56861;DHT22;42744;51.094;3.490;2023-08-07T04:29:35;10.40;99.90
56861;DHT22;42744;51.094;3.490;2023-08-07T04:32:01;10.50;99.90
56861;DHT22;42744;51.094;3.490;2023-08-07T04:34:28;10.50;99.90
56861;DHT22;42744;51.094;3.490;2023-08-07T04:36:54;10.50;99.90
56861;DHT22;42744;51.094;3.490;2023-08-07T04:39:22;10.50;99.90
56861;DHT22;42744;51.094;3.490;2023-08-07T04:41:48;10.50;99.90
56861;DHT22;42744;51.094;3.490;2023-08-07T04:44:16;10.50;99.90
56861;DHT22;42744;51.094;3.490;2023-08-07T04:46:42;10.50;99.90
56861;DHT22;42744;51.094;3.490;2023-08-07T04:49:08;10.50;99.90
56861;DHT22;42744;51.094;3.490;2023-08-07T04:51:34;10.50;99.90
56861;DHT22;42744;51.094;3.490;2023-08-07T04:54:10;10.40;99.90
56861;DHT22;42744;51.094;3.490;2023-08-07T04:56:48;10.40;99.90
56861;DHT22;42744;51.094;3.490;2023-08-07T04:59:17;10.40;99.90
56861;DHT22;42744;51.094;3.490;2023-08-07T05:01:42;10.40;99.90
56861;DHT22;42744;51.094;3.490;2023-08-07T05:04:08;10.40;99.90
56861;DHT22;42744;51.094;3.490;2023-08-07T05:06:34;10.40;99.90
56861;DHT22;42744;51.094;3.490;2023-08-07T05:09:02;10.50;99.90
56861;DHT22;42744;51.094;3.490;2023-08-07T05:11:29;10.50;99.90
56861;DHT22;42744;51.094;3.490;2023-08-07T05:13:55;10.50;99.90
56861;DHT22;42744;51.094;3.490;2023-08-07T05:16:20;10.60;99.90
56861;DHT22;42744;51.094;3.490;2023-08-07T05:18:46;10.60;99.90
56861;DHT22;42744;51.094;3.490;2023-08-07T05:21:13;10.60;99.90
56861;DHT22;42744;51.094;3.490;2023-08-07T05:23:38;10.60;99.90
56861;DHT22;42744;51.094;3.490;2023-08-07T05:26:04;10.70;99.90
56861;DHT22;42744;51.094;3.490;2023-08-07T05:28:30;10.70;99.90
56861;DHT22;42744;51.094;3.490;2023-08-07T05:30:56;10.70;99.90
56861;DHT22;42744;51.094;3.490;2023-08-07T05:33:22;10.80;99.90
56861;DHT22;42744;51.094;3.490;2023-08-07T05:35:48;10.80;99.90
56861;DHT22;42744;51.094;3.490;2023-08-07T05:38:15;10.90;99.90
56861;DHT22;42744;51.094;3.490;2023-08-07T05:40:41;10.90;99.90
56861;DHT22;42744;51.094;3.490;2023-08-07T05:43:07;10.90;99.90
56861;DHT22;42744;51.094;3.490;2023-08-07T05:45:34;11.00;99.90
56861;DHT22;42744;51.094;3.490;2023-08-07T05:48:00;11.10;99.90
56861;DHT22;42744;51.094;3.490;2023-08-07T05:50:26;11.20;99.90
56861;DHT22;42744;51.094;3.490;2023-08-07T05:52:52;11.20;99.90
56861;DHT22;42744;51.094;3.490;2023-08-07T05:55:17;11.30;99.90
56861;DHT22;42744;51.094;3.490;2023-08-07T05:57:44;11.30;99.90
56861;DHT22;42744;51.094;3.490;2023-08-07T06:00:10;11.40;99.90
56861;DHT22;42744;51.094;3.490;2023-08-07T06:02:41;11.40;99.90
56861;DHT22;42744;51.094;3.490;2023-08-07T06:05:07;11.50;99.90
56861;DHT22;42744;51.094;3.490;2023-08-07T06:07:35;11.60;99.90
56861;DHT22;42744;51.094;3.490;2023-08-07T06:10:08;11.60;99.90
56861;DHT22;42744;51.094;3.490;2023-08-07T06:12:34;11.70;99.90
56861;DHT22;42744;51.094;3.490;2023-08-07T06:14:59;11.80;99.90
56861;DHT22;42744;51.094;3.490;2023-08-07T06:17:27;11.80;99.90
56861;DHT22;42744;51.094;3.490;2023-08-07T06:19:52;11.90;99.90
56861;DHT22;42744;51.094;3.490;2023-08-07T06:22:18;12.00;99.90
56861;DHT22;42744;51.094;3.490;2023-08-07T06:24:44;12.00;99.90
56861;DHT22;42744;51.094;3.490;2023-08-07T06:27:10;12.10;99.90
56861;DHT22;42744;51.094;3.490;2023-08-07T06:29:36;12.20;99.90
56861;DHT22;42744;51.094;3.490;2023-08-07T06:32:03;12.20;99.90
56861;DHT22;42744;51.094;3.490;2023-08-07T06:34:29;12.30;99.90
56861;DHT22;42744;51.094;3.490;2023-08-07T06:36:54;12.40;99.90
56861;DHT22;42744;51.094;3.490;2023-08-07T06:39:21;12.50;99.90
56861;DHT22;42744;51.094;3.490;2023-08-07T06:41:46;12.50;99.90
56861;DHT22;42744;51.094;3.490;2023-08-07T06:44:13;12.60;99.90
56861;DHT22;42744;51.094;3.490;2023-08-07T06:46:40;12.80;99.90
56861;DHT22;42744;51.094;3.490;2023-08-07T06:49:05;12.90;99.90
56861;DHT22;42744;51.094;3.490;2023-08-07T06:51:31;13.00;99.90
56861;DHT22;42744;51.094;3.490;2023-08-07T06:53:57;13.10;99.90
56861;DHT22;42744;51.094;3.490;2023-08-07T06:56:23;13.20;99.90
56861;DHT22;42744;51.094;3.490;2023-08-07T06:58:49;13.30;99.90
56861;DHT22;42744;51.094;3.490;2023-08-07T07:01:15;13.50;99.90
56861;DHT22;42744;51.094;3.490;2023-08-07T07:03:41;13.50;99.90
56861;DHT22;42744;51.094;3.490;2023-08-07T07:06:07;13.60;99.90
56861;DHT22;42744;51.094;3.490;2023-08-07T07:08:34;13.70;99.90
56861;DHT22;42744;51.094;3.490;2023-08-07T07:11:00;13.80;99.90
56861;DHT22;42744;51.094;3.490;2023-08-07T07:13:26;13.90;99.90
56861;DHT22;42744;51.094;3.490;2023-08-07T07:15:54;13.90;99.90
56861;DHT22;42744;51.094;3.490;2023-08-07T07:18:20;14.00;99.90
56861;DHT22;42744;51.094;3.490;2023-08-07T07:20:46;14.00;99.90
56861;DHT22;42744;51.094;3.490;2023-08-07T07:23:12;14.10;99.90
56861;DHT22;42744;51.094;3.490;2023-08-07T07:25:38;14.20;99.90
56861;DHT22;42744;51.094;3.490;2023-08-07T07:28:04;14.30;99.90
56861;DHT22;42744;51.094;3.490;2023-08-07T07:30:30;14.40;99.90
56861;DHT22;42744;51.094;3.490;2023-08-07T07:32:56;14.50;99.90
56861;DHT22;42744;51.094;3.490;2023-08-07T07:35:22;14.60;99.90
56861;DHT22;42744;51.094;3.490;2023-08-07T07:37:48;14.80;99.90
56861;DHT22;42744;51.094;3.490;2023-08-07T07:40:14;14.80;99.90
56861;DHT22;42744;51.094;3.490;2023-08-07T07:42:40;14.90;99.90
56861;DHT22;42744;51.094;3.490;2023-08-07T07:45:06;14.80;99.90
56861;DHT22;42744;51.094;3.490;2023-08-07T07:47:32;14.80;99.90
56861;DHT22;42744;51.094;3.490;2023-08-07T07:50:08;14.70;99.90
56861;DHT22;42744;51.094;3.490;2023-08-07T07:52:34;14.80;99.90
56861;DHT22;42744;51.094;3.490;2023-08-07T07:55:00;14.80;99.90
56861;DHT22;42744;51.094;3.490;2023-08-07T07:57:26;14.90;99.90
56861;DHT22;42744;51.094;3.490;2023-08-07T07:59:52;15.10;99.90
56861;DHT22;42744;51.094;3.490;2023-08-07T08:02:18;15.10;99.90
56861;DHT22;42744;51.094;3.490;2023-08-07T08:04:45;15.20;99.90
56861;DHT22;42744;51.094;3.490;2023-08-07T08:07:10;15.20;99.90
56861;DHT22;42744;51.094;3.490;2023-08-07T08:09:36;15.20;99.90
56861;DHT22;42744;51.094;3.490;2023-08-07T08:12:03;15.30;99.90
56861;DHT22;42744;51.094;3.490;2023-08-07T08:14:29;15.40;99.90
56861;DHT22;42744;51.094;3.490;2023-08-07T08:16:54;15.40;99.90
56861;DHT22;42744;51.094;3.490;2023-08-07T08:19:21;15.40;99.90
56861;DHT22;42744;51.094;3.490;2023-08-07T08:21:47;15.50;99.90
56861;DHT22;42744;51.094;3.490;2023-08-07T08:24:12;15.60;99.90
56861;DHT22;42744;51.094;3.490;2023-08-07T08:26:39;15.70;99.90
56861;DHT22;42744;51.094;3.490;2023-08-07T08:29:06;15.70;99.90
56861;DHT22;42744;51.094;3.490;2023-08-07T08:31:32;15.80;99.90
56861;DHT22;42744;51.094;3.490;2023-08-07T08:33:58;15.90;99.90
56861;DHT22;42744;51.094;3.490;2023-08-07T08:36:24;15.90;99.90
56861;DHT22;42744;51.094;3.490;2023-08-07T08:38:50;16.00;99.90
56861;DHT22;42744;51.094;3.490;2023-08-07T08:41:18;16.10;99.90
56861;DHT22;42744;51.094;3.490;2023-08-07T08:43:45;16.00;99.90
56861;DHT22;42744;51.094;3.490;2023-08-07T08:46:15;16.00;99.90
56861;DHT22;42744;51.094;3.490;2023-08-07T08:48:50;16.10;99.90
56861;DHT22;42744;51.094;3.490;2023-08-07T08:51:16;16.30;99.90
56861;DHT22;42744;51.094;3.490;2023-08-07T08:53:45;16.40;99.90
56861;DHT22;42744;51.094;3.490;2023-08-07T08:56:12;16.60;99.90
56861;DHT22;42744;51.094;3.490;2023-08-07T08:58:38;16.60;99.90
56861;DHT22;42744;51.094;3.490;2023-08-07T09:01:06;16.60;99.90
56861;DHT22;42744;51.094;3.490;2023-08-07T09:03:32;16.60;99.90
56861;DHT22;42744;51.094;3.490;2023-08-07T09:05:58;16.60;99.90
56861;DHT22;42744;51.094;3.490;2023-08-07T09:08:28;16.60;99.90
56861;DHT22;42744;51.094;3.490;2023-08-07T09:10:56;16.60;99.90
56861;DHT22;42744;51.094;3.490;2023-08-07T09:13:23;16.50;99.90
56861;DHT22;42744;51.094;3.490;2023-08-07T09:15:50;16.60;99.90
56861;DHT22;42744;51.094;3.490;2023-08-07T09:18:17;16.70;99.90
56861;DHT22;42744;51.094;3.490;2023-08-07T09:20:45;16.70;99.90
56861;DHT22;42744;51.094;3.490;2023-08-07T09:23:12;16.90;99.90
56861;DHT22;42744;51.094;3.490;2023-08-07T09:25:38;17.00;99.90
56861;DHT22;42744;51.094;3.490;2023-08-07T09:28:05;17.10;99.90
56861;DHT22;42744;51.094;3.490;2023-08-07T09:30:34;17.20;99.90
56861;DHT22;42744;51.094;3.490;2023-08-07T09:33:00;17.20;99.90
56861;DHT22;42744;51.094;3.490;2023-08-07T09:35:33;17.10;99.90
56861;DHT22;42744;51.094;3.490;2023-08-07T09:38:00;17.20;99.90
56861;DHT22;42744;51.094;3.490;2023-08-07T09:40:26;17.20;99.90
56861;DHT22;42744;51.094;3.490;2023-08-07T09:43:02;17.40;99.90
56861;DHT22;42744;51.094;3.490;2023-08-07T09:45:29;17.50;99.90
56861;DHT22;42744;51.094;3.490;2023-08-07T09:48:01;17.60;99.90
56861;DHT22;42744;51.094;3.490;2023-08-07T09:50:28;17.80;99.90
56861;DHT22;42744;51.094;3.490;2023-08-07T09:52:55;17.90;99.90
56861;DHT22;42744;51.094;3.490;2023-08-07T09:55:22;18.00;99.90
56861;DHT22;42744;51.094;3.490;2023-08-07T09:57:48;18.10;99.90
56861;DHT22;42744;51.094;3.490;2023-08-07T10:00:15;18.10;99.90
56861;DHT22;42744;51.094;3.490;2023-08-07T10:02:42;18.10;99.90
56861;DHT22;42744;51.094;3.490;2023-08-07T10:05:11;18.30;99.90
56861;DHT22;42744;51.094;3.490;2023-08-07T10:07:38;18.50;99.90
56861;DHT22;42744;51.094;3.490;2023-08-07T10:10:08;18.80;99.90
56861;DHT22;42744;51.094;3.490;2023-08-07T10:12:36;19.00;99.90
56861;DHT22;42744;51.094;3.490;2023-08-07T10:15:03;18.90;99.90
56861;DHT22;42744;51.094;3.490;2023-08-07T10:17:30;18.90;99.90
56861;DHT22;42744;51.094;3.490;2023-08-07T10:19:57;18.70;99.90
56861;DHT22;42744;51.094;3.490;2023-08-07T10:22:25;18.60;99.90
56861;DHT22;42744;51.094;3.490;2023-08-07T10:24:54;18.60;99.90
56861;DHT22;42744;51.094;3.490;2023-08-07T10:27:23;18.60;99.90
56861;DHT22;42744;51.094;3.490;2023-08-07T10:29:51;18.50;99.90
56861;DHT22;42744;51.094;3.490;2023-08-07T10:32:20;18.60;99.90
56861;DHT22;42744;51.094;3.490;2023-08-07T10:34:49;18.80;99.90
56861;DHT22;42744;51.094;3.490;2023-08-07T10:40:02;19.40;99.90
56861;DHT22;42744;51.094;3.490;2023-08-07T10:45:18;19.50;99.90
56861;DHT22;42744;51.094;3.490;2023-08-07T10:50:33;19.50;99.90
56861;DHT22;42744;51.094;3.490;2023-08-07T10:53:03;19.80;99.90
56861;DHT22;42744;51.094;3.490;2023-08-07T10:55:46;20.10;99.90
56861;DHT22;42744;51.094;3.490;2023-08-07T10:58:29;20.40;99.90
56861;DHT22;42744;51.094;3.490;2023-08-07T11:01:24;20.50;99.90
56861;DHT22;42744;51.094;3.490;2023-08-07T11:03:55;20.60;99.90
56861;DHT22;42744;51.094;3.490;2023-08-07T11:06:23;20.80;99.90
56861;DHT22;42744;51.094;3.490;2023-08-07T11:08:50;20.80;99.90
56861;DHT22;42744;51.094;3.490;2023-08-07T11:11:17;20.80;99.90
56861;DHT22;42744;51.094;3.490;2023-08-07T11:13:43;20.80;99.90
56861;DHT22;42744;51.094;3.490;2023-08-07T11:16:09;21.10;99.90
56861;DHT22;42744;51.094;3.490;2023-08-07T11:18:37;21.50;99.90
56861;DHT22;42744;51.094;3.490;2023-08-07T11:21:10;21.80;99.90
56861;DHT22;42744;51.094;3.490;2023-08-07T11:23:38;21.90;99.90
56861;DHT22;42744;51.094;3.490;2023-08-07T11:26:04;21.80;99.90
56861;DHT22;42744;51.094;3.490;2023-08-07T11:28:30;21.40;99.90
56861;DHT22;42744;51.094;3.490;2023-08-07T11:30:56;21.10;99.90
56861;DHT22;42744;51.094;3.490;2023-08-07T11:33:26;20.80;99.90
56861;DHT22;42744;51.094;3.490;2023-08-07T11:35:53;20.80;99.90
56861;DHT22;42744;51.094;3.490;2023-08-07T11:38:38;21.00;99.90
56861;DHT22;42744;51.094;3.490;2023-08-07T11:41:06;21.50;99.90
56861;DHT22;42744;51.094;3.490;2023-08-07T11:43:33;21.60;99.90
56861;DHT22;42744;51.094;3.490;2023-08-07T11:46:01;21.50;99.90
56861;DHT22;42744;51.094;3.490;2023-08-07T11:48:29;21.30;99.90
56861;DHT22;42744;51.094;3.490;2023-08-07T11:50:56;21.50;99.90
56861;DHT22;42744;51.094;3.490;2023-08-07T11:53:29;21.90;99.90
56861;DHT22;42744;51.094;3.490;2023-08-07T11:56:04;22.40;99.90
56861;DHT22;42744;51.094;3.490;2023-08-07T11:58:36;22.60;99.90
56861;DHT22;42744;51.094;3.490;2023-08-07T12:01:08;22.50;99.90
56861;DHT22;42744;51.094;3.490;2023-08-07T12:03:36;22.50;99.90
56861;DHT22;42744;51.094;3.490;2023-08-07T12:06:05;22.60;99.90
56861;DHT22;42744;51.094;3.490;2023-08-07T12:08:36;22.20;99.90
56861;DHT22;42744;51.094;3.490;2023-08-07T12:11:07;21.70;99.90
56861;DHT22;42744;51.094;3.490;2023-08-07T12:13:37;21.60;99.90
56861;DHT22;42744;51.094;3.490;2023-08-07T12:16:03;21.80;99.90
56861;DHT22;42744;51.094;3.490;2023-08-07T12:18:30;22.20;99.90
56861;DHT22;42744;51.094;3.490;2023-08-07T12:21:02;22.80;99.90
56861;DHT22;42744;51.094;3.490;2023-08-07T12:23:28;22.90;99.90
56861;DHT22;42744;51.094;3.490;2023-08-07T12:25:54;22.70;99.90
56861;DHT22;42744;51.094;3.490;2023-08-07T12:28:20;21.90;99.90
56861;DHT22;42744;51.094;3.490;2023-08-07T12:30:47;21.40;99.90
56861;DHT22;42744;51.094;3.490;2023-08-07T12:33:14;21.00;99.90
56861;DHT22;42744;51.094;3.490;2023-08-07T12:35:40;21.10;99.90
56861;DHT22;42744;51.094;3.490;2023-08-07T12:38:07;21.50;99.90
56861;DHT22;42744;51.094;3.490;2023-08-07T12:40:35;21.60;99.90
56861;DHT22;42744;51.094;3.490;2023-08-07T12:43:04;21.60;99.90
56861;DHT22;42744;51.094;3.490;2023-08-07T12:45:31;21.50;99.90
56861;DHT22;42744;51.094;3.490;2023-08-07T12:47:57;21.40;99.90
56861;DHT22;42744;51.094;3.490;2023-08-07T12:50:23;21.10;99.90
56861;DHT22;42744;51.094;3.490;2023-08-07T12:52:49;20.90;99.90
56861;DHT22;42744;51.094;3.490;2023-08-07T12:55:15;20.60;99.90
56861;DHT22;42744;51.094;3.490;2023-08-07T12:57:41;20.50;99.90
56861;DHT22;42744;51.094;3.490;2023-08-07T13:00:11;20.30;99.90
56861;DHT22;42744;51.094;3.490;2023-08-07T13:02:41;20.30;99.90
56861;DHT22;42744;51.094;3.490;2023-08-07T13:05:08;20.20;99.90
56861;DHT22;42744;51.094;3.490;2023-08-07T13:07:46;20.00;99.90
56861;DHT22;42744;51.094;3.490;2023-08-07T13:10:34;20.20;99.90
56861;DHT22;42744;51.094;3.490;2023-08-07T13:13:00;20.90;99.90
56861;DHT22;42744;51.094;3.490;2023-08-07T13:15:27;21.60;99.90
56861;DHT22;42744;51.094;3.490;2023-08-07T13:17:53;22.00;99.90
56861;DHT22;42744;51.094;3.490;2023-08-07T13:20:19;21.90;99.90
56861;DHT22;42744;51.094;3.490;2023-08-07T13:22:46;21.60;99.90
56861;DHT22;42744;51.094;3.490;2023-08-07T13:25:12;21.20;99.90
56861;DHT22;42744;51.094;3.490;2023-08-07T13:27:39;20.80;99.90
56861;DHT22;42744;51.094;3.490;2023-08-07T13:30:07;20.60;99.90
56861;DHT22;42744;51.094;3.490;2023-08-07T13:32:33;20.90;99.90
56861;DHT22;42744;51.094;3.490;2023-08-07T13:34:59;21.40;99.90
56861;DHT22;42744;51.094;3.490;2023-08-07T13:37:25;21.70;99.90
56861;DHT22;42744;51.094;3.490;2023-08-07T13:39:51;22.00;99.90
56861;DHT22;42744;51.094;3.490;2023-08-07T13:42:19;22.40;99.90
56861;DHT22;42744;51.094;3.490;2023-08-07T13:44:45;22.70;99.90
56861;DHT22;42744;51.094;3.490;2023-08-07T13:47:11;22.90;99.90
56861;DHT22;42744;51.094;3.490;2023-08-07T13:49:38;22.50;99.90
56861;DHT22;42744;51.094;3.490;2023-08-07T13:52:05;22.20;99.90
56861;DHT22;42744;51.094;3.490;2023-08-07T13:54:31;22.20;99.90
56861;DHT22;42744;51.094;3.490;2023-08-07T13:56:57;22.00;99.90
56861;DHT22;42744;51.094;3.490;2023-08-07T13:59:23;21.70;99.90
56861;DHT22;42744;51.094;3.490;2023-08-07T14:01:49;21.50;99.90
56861;DHT22;42744;51.094;3.490;2023-08-07T14:04:15;21.30;99.90
56861;DHT22;42744;51.094;3.490;2023-08-07T14:06:42;21.30;99.90
56861;DHT22;42744;51.094;3.490;2023-08-07T14:09:10;21.40;99.90
56861;DHT22;42744;51.094;3.490;2023-08-07T14:11:38;21.50;99.90
56861;DHT22;42744;51.094;3.490;2023-08-07T14:14:03;21.60;99.90
56861;DHT22;42744;51.094;3.490;2023-08-07T14:16:29;21.70;99.90
56861;DHT22;42744;51.094;3.490;2023-08-07T14:18:57;22.00;99.90
56861;DHT22;42744;51.094;3.490;2023-08-07T14:21:23;22.60;99.90
56861;DHT22;42744;51.094;3.490;2023-08-07T14:23:50;22.50;99.90
56861;DHT22;42744;51.094;3.490;2023-08-07T14:26:16;22.20;99.90
56861;DHT22;42744;51.094;3.490;2023-08-07T14:28:43;21.90;99.90
56861;DHT22;42744;51.094;3.490;2023-08-07T14:31:09;21.70;99.90
56861;DHT22;42744;51.094;3.490;2023-08-07T14:33:37;21.70;99.90
56861;DHT22;42744;51.094;3.490;2023-08-07T14:36:03;21.50;99.90
56861;DHT22;42744;51.094;3.490;2023-08-07T14:38:29;21.80;99.90
56861;DHT22;42744;51.094;3.490;2023-08-07T14:40:56;21.90;99.90
56861;DHT22;42744;51.094;3.490;2023-08-07T14:43:22;21.80;99.90
56861;DHT22;42744;51.094;3.490;2023-08-07T14:45:49;21.60;99.90
56861;DHT22;42744;51.094;3.490;2023-08-07T14:48:15;21.50;99.90
56861;DHT22;42744;51.094;3.490;2023-08-07T14:50:41;21.70;99.90
56861;DHT22;42744;51.094;3.490;2023-08-07T14:53:07;21.60;99.90
56861;DHT22;42744;51.094;3.490;2023-08-07T14:55:34;21.50;99.90
56861;DHT22;42744;51.094;3.490;2023-08-07T14:58:00;21.50;99.90
56861;DHT22;42744;51.094;3.490;2023-08-07T15:00:26;21.60;99.90
56861;DHT22;42744;51.094;3.490;2023-08-07T15:02:52;21.80;99.90
56861;DHT22;42744;51.094;3.490;2023-08-07T15:05:18;21.90;99.90
56861;DHT22;42744;51.094;3.490;2023-08-07T15:07:44;22.00;99.90
56861;DHT22;42744;51.094;3.490;2023-08-07T15:10:11;22.30;99.90
56861;DHT22;42744;51.094;3.490;2023-08-07T15:12:37;22.40;99.90
56861;DHT22;42744;51.094;3.490;2023-08-07T15:15:03;22.50;99.90
56861;DHT22;42744;51.094;3.490;2023-08-07T15:17:31;22.50;99.90
56861;DHT22;42744;51.094;3.490;2023-08-07T15:19:57;22.40;99.90
56861;DHT22;42744;51.094;3.490;2023-08-07T15:22:23;22.50;99.90
56861;DHT22;42744;51.094;3.490;2023-08-07T15:24:49;22.80;99.90
56861;DHT22;42744;51.094;3.490;2023-08-07T15:27:15;23.10;99.90
56861;DHT22;42744;51.094;3.490;2023-08-07T15:29:44;23.00;99.90
56861;DHT22;42744;51.094;3.490;2023-08-07T15:32:12;22.80;99.90
56861;DHT22;42744;51.094;3.490;2023-08-07T15:34:39;22.70;99.90
56861;DHT22;42744;51.094;3.490;2023-08-07T15:37:05;22.50;99.90
56861;DHT22;42744;51.094;3.490;2023-08-07T15:39:32;22.20;99.90
56861;DHT22;42744;51.094;3.490;2023-08-07T15:41:58;22.20;99.90
56861;DHT22;42744;51.094;3.490;2023-08-07T15:44:25;22.20;99.90